createdAt,value
2017-09-21T00:01:23.108Z,99.90
2017-09-21T00:03:51.464Z,99.90
2017-09-21T00:06:19.703Z,99.90
2017-09-21T00:08:47.180Z,99.90
2017-09-21T00:11:15.528Z,99.90
2017-09-21T00:13:43.793Z,99.90
2017-09-21T00:16:12.028Z,99.90
2017-09-21T00:18:39.593Z,99.90
2017-09-21T00:21:07.823Z,99.90
2017-09-21T00:23:35.294Z,99.90
2017-09-21T00:26:03.556Z,99.90
2017-09-21T00:28:31.814Z,99.90
2017-09-21T00:31:00.056Z,99.90
2017-09-21T00:33:27.552Z,99.90
2017-09-21T00:35:55.015Z,99.90
2017-09-21T00:38:22.504Z,99.90
2017-09-21T00:40:50.001Z,99.90
2017-09-21T00:43:17.759Z,99.90
2017-09-21T00:45:45.231Z,99.90
2017-09-21T00:48:13.464Z,99.90
2017-09-21T00:50:41.143Z,99.90
2017-09-21T00:53:09.401Z,99.90
2017-09-21T00:55:37.665Z,99.90
2017-09-21T00:58:05.940Z,99.90
2017-09-21T01:00:33.469Z,99.90
2017-09-21T01:03:01.704Z,99.90
2017-09-21T01:05:29.272Z,99.90
2017-09-21T01:07:57.536Z,99.90
2017-09-21T01:10:25.773Z,99.90
2017-09-21T01:12:53.276Z,99.90
2017-09-21T01:15:20.793Z,99.90
2017-09-21T01:17:48.323Z,99.90
2017-09-21T01:20:16.780Z,99.90
2017-09-21T01:22:45.049Z,99.90
2017-09-21T01:25:13.279Z,99.90
2017-09-21T01:27:40.776Z,99.90
2017-09-21T01:30:08.288Z,99.90
2017-09-21T01:32:36.523Z,99.90
2017-09-21T01:35:04.024Z,99.90
2017-09-21T01:37:31.491Z,99.90
2017-09-21T01:39:59.044Z,99.90
2017-09-21T01:42:27.508Z,99.90
2017-09-21T01:44:55.753Z,99.90
2017-09-21T01:47:23.234Z,99.90
2017-09-21T01:49:50.968Z,99.90
2017-09-21T01:52:19.203Z,99.90
2017-09-21T01:54:46.763Z,99.90
2017-09-21T01:57:15.036Z,99.90
2017-09-21T01:59:42.580Z,99.90
2017-09-21T02:02:10.827Z,99.90
2017-09-21T02:04:39.195Z,99.90
2017-09-21T02:07:07.456Z,99.90
2017-09-21T02:09:35.684Z,99.90
2017-09-21T02:12:03.175Z,99.90
2017-09-21T02:14:30.796Z,99.90
2017-09-21T02:16:59.027Z,99.90
2017-09-21T02:19:26.599Z,99.90
2017-09-21T02:21:54.837Z,99.90
2017-09-21T02:24:22.316Z,99.90
2017-09-21T02:26:50.677Z,99.90
2017-09-21T02:29:19.016Z,99.90
2017-09-21T02:31:46.480Z,99.90
2017-09-21T02:34:14.750Z,99.90
2017-09-21T02:36:42.215Z,99.90
2017-09-21T02:39:09.689Z,99.90
2017-09-21T02:41:37.244Z,99.90
2017-09-21T02:44:04.721Z,99.90
2017-09-21T02:46:32.247Z,99.90
2017-09-21T02:49:00.516Z,99.90
2017-09-21T02:51:27.984Z,99.90
2017-09-21T02:53:55.465Z,99.90
2017-09-21T02:56:23.137Z,99.90
2017-09-21T02:58:50.607Z,99.90
2017-09-21T03:01:18.084Z,99.90
2017-09-21T03:03:45.768Z,99.90
2017-09-21T03:06:14.029Z,99.90
2017-09-21T03:08:42.258Z,99.90
2017-09-21T03:11:09.776Z,99.90
2017-09-21T03:13:37.238Z,99.90
2017-09-21T03:16:04.712Z,99.90
2017-09-21T03:18:32.984Z,99.90
2017-09-21T03:21:00.460Z,99.90
2017-09-21T03:23:27.955Z,99.90
2017-09-21T03:25:56.235Z,99.90
2017-09-21T03:28:23.708Z,99.90
2017-09-21T03:30:51.187Z,99.90
2017-09-21T03:33:18.752Z,99.90
2017-09-21T03:35:46.231Z,99.90
2017-09-21T03:38:14.464Z,99.90
2017-09-21T03:40:42.136Z,99.90
2017-09-21T03:43:10.375Z,99.90
2017-09-21T03:45:38.656Z,99.90
2017-09-21T03:48:06.907Z,99.90
2017-09-21T03:50:34.372Z,99.90
2017-09-21T03:53:01.901Z,99.90
2017-09-21T03:55:30.131Z,99.90
2017-09-21T03:57:57.804Z,99.90
2017-09-21T04:00:26.071Z,99.90
2017-09-21T04:02:54.332Z,99.90
2017-09-21T04:05:22.603Z,99.90
2017-09-21T04:07:51.058Z,99.90
2017-09-21T04:10:19.300Z,99.90
2017-09-21T04:12:46.862Z,99.90
2017-09-21T04:15:15.322Z,99.90
2017-09-21T04:17:43.559Z,99.90
2017-09-21T04:20:11.027Z,99.90
2017-09-21T04:22:39.284Z,99.90
2017-09-21T04:25:07.516Z,99.90
2017-09-21T04:27:35.088Z,99.90
2017-09-21T04:30:03.376Z,99.90
2017-09-21T04:32:30.849Z,99.90
2017-09-21T04:34:58.316Z,99.90
2017-09-21T04:37:25.807Z,99.90
2017-09-21T04:39:53.290Z,99.90
2017-09-21T04:42:20.808Z,99.90
2017-09-21T04:44:48.329Z,99.90
2017-09-21T04:47:16.584Z,99.90
2017-09-21T04:49:44.979Z,99.90
2017-09-21T04:52:12.492Z,99.90
2017-09-21T04:54:40.752Z,99.90
2017-09-21T04:57:09.132Z,99.90
2017-09-21T04:59:36.604Z,99.90
2017-09-21T05:02:04.097Z,99.90
2017-09-21T05:04:32.564Z,99.90
2017-09-21T05:07:00.800Z,99.90
2017-09-21T05:09:28.267Z,99.90
2017-09-21T05:11:56.536Z,99.90
2017-09-21T05:14:24.007Z,99.90
2017-09-21T05:16:51.483Z,99.90
2017-09-21T05:19:19.154Z,99.90
2017-09-21T05:21:46.624Z,99.90
2017-09-21T05:24:14.109Z,99.90
2017-09-21T05:26:41.791Z,99.90
2017-09-21T05:29:10.061Z,99.90
2017-09-21T05:31:38.296Z,99.90
2017-09-21T05:34:05.809Z,99.90
2017-09-21T05:36:33.280Z,99.90
2017-09-21T05:39:00.744Z,99.90
2017-09-21T05:41:28.239Z,99.90
2017-09-21T05:43:55.821Z,99.90
2017-09-21T05:46:24.047Z,99.90
2017-09-21T05:48:51.548Z,99.90
2017-09-21T05:51:19.236Z,99.90
2017-09-21T05:53:46.703Z,99.90
2017-09-21T05:56:15.181Z,99.90
2017-09-21T05:58:43.477Z,99.90
2017-09-21T06:01:10.949Z,99.90
2017-09-21T06:03:38.504Z,99.90
2017-09-21T06:06:06.768Z,99.90
2017-09-21T06:08:35.024Z,99.90
2017-09-21T06:11:03.318Z,99.90
2017-09-21T06:13:30.941Z,99.90
2017-09-21T06:15:59.197Z,99.90
2017-09-21T06:18:27.479Z,99.90
2017-09-21T06:20:54.996Z,99.90
2017-09-21T06:23:23.263Z,99.90
2017-09-21T06:25:51.499Z,99.90
2017-09-21T06:28:19.064Z,99.90
2017-09-21T06:30:47.319Z,99.90
2017-09-21T06:33:15.583Z,99.90
2017-09-21T06:35:43.820Z,99.90
2017-09-21T06:38:11.292Z,99.90
2017-09-21T06:40:39.548Z,99.90
2017-09-21T06:43:07.116Z,99.90
2017-09-21T06:45:35.352Z,99.90
2017-09-21T06:48:02.952Z,99.90
2017-09-21T06:50:30.485Z,99.90
2017-09-21T06:52:57.986Z,99.90
2017-09-21T06:55:25.551Z,99.90
2017-09-21T06:57:53.786Z,99.90
2017-09-21T07:00:21.263Z,99.90
2017-09-21T07:02:49.536Z,99.90
2017-09-21T07:05:17.009Z,99.90
2017-09-21T07:07:44.476Z,99.90
2017-09-21T07:10:12.031Z,99.90
2017-09-21T07:12:40.305Z,99.90
2017-09-21T07:15:08.544Z,99.90
2017-09-21T07:17:36.065Z,99.90
2017-09-21T07:20:03.564Z,99.90
2017-09-21T07:22:31.035Z,99.90
2017-09-21T07:24:58.740Z,99.90
2017-09-21T07:27:26.971Z,99.90
2017-09-21T07:29:54.540Z,99.90
2017-09-21T07:32:22.811Z,99.90
2017-09-21T07:34:51.039Z,99.90
2017-09-21T07:37:18.509Z,99.90
2017-09-21T07:39:46.776Z,99.90
2017-09-21T07:42:14.241Z,99.90
2017-09-21T07:44:42.475Z,99.90
2017-09-21T07:47:09.952Z,99.90
2017-09-21T07:49:38.184Z,99.90
2017-09-21T07:52:05.648Z,99.90
2017-09-21T07:54:33.920Z,99.90
2017-09-21T07:57:02.153Z,99.90
2017-09-21T07:59:29.721Z,99.90
2017-09-21T08:01:58.032Z,99.90
2017-09-21T08:04:25.512Z,99.90
2017-09-21T08:06:53.061Z,99.90
2017-09-21T08:09:21.320Z,99.90
2017-09-21T08:11:49.544Z,99.90
2017-09-21T08:14:17.228Z,99.90
2017-09-21T08:16:45.452Z,99.90
2017-09-21T08:19:12.921Z,99.90
2017-09-21T08:21:41.340Z,99.90
2017-09-21T08:24:08.800Z,99.90
2017-09-21T08:26:36.260Z,99.90
2017-09-21T08:29:03.836Z,99.90
2017-09-21T08:31:33.079Z,99.90
2017-09-21T08:34:00.724Z,99.90
2017-09-21T08:36:28.224Z,99.90
2017-09-21T08:38:55.727Z,99.90
2017-09-21T08:41:23.193Z,99.90
2017-09-21T08:43:50.818Z,99.90
2017-09-21T08:46:19.086Z,99.90
2017-09-21T08:48:47.303Z,99.90
2017-09-21T08:51:14.875Z,99.90
2017-09-21T08:53:43.107Z,99.90
2017-09-21T08:56:10.680Z,99.90
2017-09-21T08:58:39.140Z,99.90
2017-09-21T09:01:06.689Z,99.90
2017-09-21T09:03:34.944Z,99.90
2017-09-21T09:06:02.619Z,99.90
2017-09-21T09:08:30.086Z,99.90
2017-09-21T09:10:57.587Z,99.90
2017-09-21T09:13:25.124Z,99.90
2017-09-21T09:15:53.352Z,99.90
2017-09-21T09:18:20.811Z,99.90
2017-09-21T09:20:48.467Z,99.90
2017-09-21T09:23:16.696Z,99.90
2017-09-21T09:25:44.165Z,99.90
2017-09-21T09:28:11.636Z,99.90
2017-09-21T09:30:39.111Z,99.90
2017-09-21T09:33:06.571Z,99.90
2017-09-21T09:35:34.241Z,99.90
2017-09-21T09:38:02.476Z,99.90
2017-09-21T09:40:29.951Z,99.90
2017-09-21T09:42:57.448Z,99.90
2017-09-21T09:45:24.909Z,99.90
2017-09-21T09:47:52.374Z,99.90
2017-09-21T09:50:20.045Z,99.90
2017-09-21T09:52:47.498Z,99.90
2017-09-21T09:55:15.744Z,99.90
2017-09-21T09:57:44.009Z,99.90
2017-09-21T10:00:12.277Z,99.90
2017-09-21T10:02:40.729Z,99.90
2017-09-21T10:05:08.275Z,99.90
2017-09-21T10:07:36.539Z,99.90
2017-09-21T10:10:04.776Z,99.90
2017-09-21T10:12:33.160Z,99.90
2017-09-21T10:15:01.424Z,99.90
2017-09-21T10:17:29.656Z,99.90
2017-09-21T10:19:57.300Z,99.90
2017-09-21T10:22:24.761Z,99.90
2017-09-21T10:24:52.219Z,99.90
2017-09-21T10:27:20.672Z,99.90
2017-09-21T10:29:48.220Z,99.90
2017-09-21T10:32:16.448Z,99.90
2017-09-21T10:34:43.919Z,99.90
2017-09-21T10:37:12.176Z,99.90
2017-09-21T10:39:40.640Z,99.90
2017-09-21T10:42:08.100Z,99.90
2017-09-21T10:44:35.655Z,99.90
2017-09-21T10:47:03.405Z,99.90
2017-09-21T10:49:30.876Z,99.90
2017-09-21T10:51:59.096Z,99.50
2017-09-21T10:54:26.752Z,99.40
2017-09-21T10:56:54.295Z,99.90
2017-09-21T10:59:21.759Z,98.80
2017-09-21T11:01:50.026Z,98.10
2017-09-21T11:04:17.551Z,98.50
2017-09-21T11:06:45.807Z,97.60
2017-09-21T11:09:13.445Z,97.60
2017-09-21T11:11:40.987Z,96.20
2017-09-21T11:14:08.449Z,95.20
2017-09-21T11:16:36.891Z,94.40
2017-09-21T11:19:04.441Z,94.40
2017-09-21T11:21:31.900Z,93.10
2017-09-21T11:24:00.163Z,81.20
2017-09-21T11:26:28.396Z,77.40
2017-09-21T11:28:55.948Z,77.30
2017-09-21T11:31:24.195Z,70.00
2017-09-21T11:33:51.648Z,69.00
2017-09-21T11:36:19.103Z,71.40
2017-09-21T11:38:47.556Z,60.90
2017-09-21T11:41:15.817Z,58.70
2017-09-21T11:43:43.271Z,58.00
2017-09-21T11:46:10.907Z,50.00
2017-09-21T11:48:38.355Z,48.70
2017-09-21T11:51:05.812Z,47.60
2017-09-21T11:53:33.345Z,47.80
2017-09-21T11:56:00.801Z,49.80
2017-09-21T11:58:28.270Z,51.30
2017-09-21T12:00:55.937Z,53.20
2017-09-21T12:03:23.395Z,52.60
2017-09-21T12:05:51.635Z,46.70
2017-09-21T12:08:19.123Z,46.60
2017-09-21T12:10:46.636Z,45.10
2017-09-21T12:13:14.884Z,42.00
2017-09-21T12:15:42.381Z,41.90
2017-09-21T12:18:09.868Z,42.10
2017-09-21T12:20:38.089Z,47.20
2017-09-21T12:23:05.672Z,46.60
2017-09-21T12:25:33.941Z,50.50
2017-09-21T12:28:02.205Z,47.60
2017-09-21T12:30:29.741Z,47.50
2017-09-21T12:32:57.961Z,46.20
2017-09-21T12:35:25.441Z,46.20
2017-09-21T12:37:53.674Z,42.10
2017-09-21T12:40:21.144Z,42.10
2017-09-21T12:42:48.811Z,43.60
2017-09-21T12:45:16.269Z,42.80
2017-09-21T12:47:44.517Z,45.50
2017-09-21T12:50:12.785Z,42.50
2017-09-21T12:52:41.035Z,42.50
2017-09-21T12:55:08.488Z,42.40
2017-09-21T12:57:36.836Z,41.60
2017-09-21T13:00:04.298Z,41.40
2017-09-21T13:02:32.532Z,38.10
2017-09-21T13:05:00.186Z,38.10
2017-09-21T13:07:27.640Z,36.80
2017-09-21T13:09:55.860Z,41.70
2017-09-21T13:12:23.433Z,41.60
2017-09-21T13:14:50.977Z,43.20
2017-09-21T13:17:19.207Z,45.10
2017-09-21T13:19:46.780Z,44.40
2017-09-21T13:22:14.321Z,47.90
2017-09-21T13:24:41.866Z,49.20
2017-09-21T13:27:09.320Z,49.50
2017-09-21T13:29:37.540Z,53.30
2017-09-21T13:32:05.040Z,53.30
2017-09-21T13:34:32.501Z,55.20
2017-09-21T13:37:00.000Z,54.60
2017-09-21T13:39:28.353Z,56.60
2017-09-21T13:41:55.917Z,56.60
2017-09-21T13:44:23.461Z,56.50
2017-09-21T13:46:51.715Z,53.50
2017-09-21T13:49:19.167Z,53.40
2017-09-21T13:51:47.455Z,49.40
2017-09-21T13:54:15.060Z,49.30
2017-09-21T13:56:42.604Z,43.90
2017-09-21T13:59:10.152Z,40.00
2017-09-21T14:01:38.511Z,33.70
2017-09-21T14:04:05.973Z,33.60
2017-09-21T14:06:34.222Z,30.10
2017-09-21T14:09:02.484Z,30.60
2017-09-21T14:11:31.942Z,29.80
2017-09-21T14:13:59.506Z,29.80
2017-09-21T14:16:27.760Z,29.60
2017-09-21T14:18:55.979Z,29.40
2017-09-21T14:21:23.432Z,29.40
2017-09-21T14:23:50.908Z,29.50
2017-09-21T14:26:19.152Z,29.50
2017-09-21T14:28:46.607Z,29.40
2017-09-21T14:31:15.589Z,29.90
2017-09-21T14:33:43.832Z,30.40
2017-09-21T14:36:11.391Z,30.20
2017-09-21T14:38:38.844Z,30.60
2017-09-21T14:41:07.088Z,29.70
2017-09-21T14:43:35.312Z,29.30
2017-09-21T14:46:02.778Z,29.10
2017-09-21T14:48:30.240Z,29.80
2017-09-21T14:50:58.505Z,29.90
2017-09-21T14:53:26.760Z,29.90
2017-09-21T14:55:54.980Z,31.40
2017-09-21T14:58:22.460Z,31.40
2017-09-21T15:00:50.728Z,30.00
2017-09-21T15:03:18.189Z,30.00
2017-09-21T15:05:45.644Z,30.80
2017-09-21T15:08:13.344Z,31.30
2017-09-21T15:10:41.564Z,30.40
2017-09-21T15:13:09.043Z,30.50
2017-09-21T15:15:36.535Z,30.70
2017-09-21T15:18:04.090Z,29.40
2017-09-21T15:20:31.575Z,31.40
2017-09-21T15:22:59.842Z,30.00
2017-09-21T15:25:28.076Z,29.40
2017-09-21T15:27:55.544Z,29.30
2017-09-21T15:30:23.999Z,30.30
2017-09-21T15:32:51.456Z,30.30
2017-09-21T15:35:19.676Z,32.40
2017-09-21T15:37:47.247Z,32.30
2017-09-21T15:40:15.513Z,35.40
2017-09-21T15:42:43.768Z,35.20
2017-09-21T15:45:11.316Z,35.20
2017-09-21T15:47:38.791Z,36.20
2017-09-21T15:50:06.249Z,36.20
2017-09-21T15:52:33.715Z,37.40
2017-09-21T15:55:01.198Z,36.10
2017-09-21T15:57:29.417Z,37.70
2017-09-21T15:59:56.880Z,37.70
2017-09-21T16:02:24.423Z,40.20
2017-09-21T16:04:52.644Z,42.10
2017-09-21T16:07:20.099Z,41.50
2017-09-21T16:09:47.592Z,41.30
2017-09-21T16:12:15.044Z,40.70
2017-09-21T16:14:42.496Z,40.20
2017-09-21T16:17:09.999Z,40.70
2017-09-21T16:19:38.248Z,40.10
2017-09-21T16:22:05.712Z,40.00
2017-09-21T16:24:33.980Z,40.20
2017-09-21T16:27:01.505Z,40.20
2017-09-21T16:29:29.729Z,41.40
2017-09-21T16:31:57.299Z,41.40
2017-09-21T16:34:24.756Z,43.60
2017-09-21T16:36:52.976Z,45.60
2017-09-21T16:39:20.549Z,45.70
2017-09-21T16:41:48.804Z,48.70
2017-09-21T16:44:16.255Z,48.70
2017-09-21T16:46:43.731Z,50.50
2017-09-21T16:49:11.828Z,52.10
2017-09-21T16:51:39.283Z,55.20
2017-09-21T16:54:07.035Z,57.20
2017-09-21T16:56:35.260Z,62.30
2017-09-21T16:59:02.720Z,61.20
2017-09-21T17:01:30.241Z,64.00
2017-09-21T17:03:57.688Z,67.40
2017-09-21T17:06:25.168Z,71.20
2017-09-21T17:08:53.732Z,75.60
2017-09-21T17:11:22.036Z,78.30
2017-09-21T17:13:49.531Z,77.60
2017-09-21T17:16:17.024Z,79.00
2017-09-21T17:18:44.479Z,82.50
2017-09-21T17:21:11.967Z,83.90
2017-09-21T17:23:40.483Z,88.70
2017-09-21T17:26:07.940Z,88.70
2017-09-21T17:28:35.523Z,90.40
2017-09-21T17:31:03.781Z,91.90
2017-09-21T17:33:31.524Z,91.90
2017-09-21T17:35:59.792Z,94.80
2017-09-21T17:38:28.021Z,95.60
2017-09-21T17:40:55.513Z,95.50
2017-09-21T17:43:23.023Z,96.30
2017-09-21T17:45:50.568Z,97.00
2017-09-21T17:48:18.944Z,97.90
2017-09-21T17:50:47.169Z,98.70
2017-09-21T17:53:14.611Z,98.60
2017-09-21T17:55:42.103Z,99.30
2017-09-21T17:58:09.616Z,99.70
2017-09-21T18:00:38.024Z,99.90
2017-09-21T18:03:05.729Z,99.90
2017-09-21T18:05:34.005Z,99.90
2017-09-21T18:08:01.554Z,99.90
2017-09-21T18:10:29.027Z,99.90
2017-09-21T18:12:56.499Z,99.90
2017-09-21T18:15:24.161Z,99.90
2017-09-21T18:17:51.625Z,99.90
2017-09-21T18:20:19.858Z,99.90
2017-09-21T18:22:48.152Z,99.90
2017-09-21T18:25:16.384Z,99.90
2017-09-21T18:27:44.612Z,99.90
2017-09-21T18:30:12.092Z,99.90
2017-09-21T18:32:40.319Z,99.90
2017-09-21T18:35:07.787Z,99.90
2017-09-21T18:37:36.043Z,99.90
2017-09-21T18:40:04.293Z,99.90
2017-09-21T18:42:31.752Z,99.90
2017-09-21T18:45:00.033Z,99.90
2017-09-21T18:47:27.487Z,99.90
2017-09-21T18:49:54.991Z,99.90
2017-09-21T18:52:23.243Z,99.90
2017-09-21T18:54:52.220Z,99.90
2017-09-21T18:57:19.816Z,99.90
2017-09-21T18:59:47.311Z,99.90
2017-09-21T19:02:14.824Z,99.90
2017-09-21T19:04:42.304Z,99.90
2017-09-21T19:07:10.569Z,99.90
2017-09-21T19:09:38.791Z,99.90
2017-09-21T19:12:06.385Z,99.90
2017-09-21T19:14:33.877Z,99.90
2017-09-21T19:17:01.511Z,99.90
2017-09-21T19:19:28.979Z,99.90
2017-09-21T19:21:56.463Z,99.90
2017-09-21T19:24:24.563Z,99.90
2017-09-21T19:26:52.588Z,99.90
2017-09-21T19:29:20.292Z,99.90
2017-09-21T19:31:48.520Z,99.90
2017-09-21T19:34:17.395Z,99.90
2017-09-21T19:36:45.715Z,99.90
2017-09-21T19:39:13.952Z,99.90
2017-09-21T19:41:41.492Z,99.90
2017-09-21T19:44:09.737Z,99.90
2017-09-21T19:46:37.209Z,99.90
2017-09-21T19:49:05.453Z,99.90
2017-09-21T19:51:33.689Z,99.90
2017-09-21T19:54:01.157Z,99.90
2017-09-21T19:56:29.428Z,99.90
2017-09-21T19:58:57.841Z,99.90
2017-09-21T20:01:26.121Z,99.90
2017-09-21T20:03:53.595Z,99.90
2017-09-21T20:06:22.729Z,99.90
2017-09-21T20:08:50.308Z,99.90
2017-09-21T20:11:18.551Z,99.90
2017-09-21T20:13:46.028Z,99.90
2017-09-21T20:16:13.552Z,99.90
2017-09-21T20:18:42.001Z,99.90
2017-09-21T20:21:09.503Z,99.90
2017-09-21T20:23:36.980Z,99.90
2017-09-21T20:26:04.548Z,99.90
2017-09-21T20:28:32.097Z,99.90
2017-09-21T20:31:00.456Z,99.90
2017-09-21T20:33:28.691Z,99.90
2017-09-21T20:35:56.329Z,99.90
2017-09-21T20:38:23.903Z,99.90
2017-09-21T20:40:52.134Z,99.90
2017-09-21T20:43:19.608Z,99.90
2017-09-21T20:45:48.060Z,99.90
2017-09-21T20:48:15.615Z,99.90
2017-09-21T20:50:43.841Z,99.90
2017-09-21T20:53:11.526Z,99.90
2017-09-21T20:55:39.387Z,99.90
2017-09-21T20:58:06.851Z,99.90
2017-09-21T21:00:34.332Z,99.90
2017-09-21T21:03:01.809Z,99.90
2017-09-21T21:05:30.172Z,99.90
2017-09-21T21:07:57.693Z,99.90
2017-09-21T21:10:25.151Z,99.90
2017-09-21T21:12:53.599Z,99.90
2017-09-21T21:15:21.860Z,99.90
2017-09-21T21:17:50.132Z,99.90
2017-09-21T21:20:18.387Z,99.90
2017-09-21T21:22:45.852Z,99.90
2017-09-21T21:25:13.316Z,99.90
2017-09-21T21:27:41.572Z,99.90
2017-09-21T21:30:09.145Z,99.90
2017-09-21T21:32:36.660Z,99.90
2017-09-21T21:35:04.927Z,99.90
2017-09-21T21:37:33.167Z,99.90
2017-09-21T21:40:02.165Z,99.90
2017-09-21T21:42:30.428Z,99.90
2017-09-21T21:44:58.656Z,99.90
2017-09-21T21:47:26.115Z,99.90
2017-09-21T21:49:54.396Z,99.90
2017-09-21T21:52:22.021Z,99.90
2017-09-21T21:54:50.256Z,99.90
2017-09-21T21:57:17.732Z,99.90
2017-09-21T21:59:45.977Z,99.90
2017-09-21T22:02:13.443Z,99.90
2017-09-21T22:04:40.964Z,99.90
2017-09-21T22:07:08.437Z,99.90
2017-09-21T22:09:35.905Z,99.90
2017-09-21T22:12:03.504Z,99.90
2017-09-21T22:14:31.728Z,99.90
2017-09-21T22:16:59.304Z,99.90
2017-09-21T22:19:27.545Z,99.90
2017-09-21T22:21:55.003Z,99.90
2017-09-21T22:24:22.509Z,99.90
2017-09-21T22:26:49.968Z,99.90
2017-09-21T22:29:17.436Z,99.90
2017-09-21T22:31:45.001Z,99.90
2017-09-21T22:34:13.270Z,99.90
2017-09-21T22:36:41.492Z,99.90
2017-09-21T22:39:08.993Z,99.90
2017-09-21T22:41:36.456Z,99.90
2017-09-21T22:44:03.915Z,99.90
2017-09-21T22:46:31.484Z,99.90
2017-09-21T22:48:59.712Z,99.90
2017-09-21T22:51:27.191Z,99.90
2017-09-21T22:53:55.415Z,99.90
2017-09-21T22:56:22.874Z,99.90
2017-09-21T22:58:50.431Z,99.90
2017-09-21T23:01:18.696Z,99.90
2017-09-21T23:03:46.956Z,99.90
2017-09-21T23:06:15.197Z,99.90
2017-09-21T23:08:42.669Z,99.90
2017-09-21T23:11:11.020Z,99.90
2017-09-21T23:13:39.394Z,99.90
2017-09-21T23:16:07.620Z,99.90
2017-09-21T23:18:35.084Z,99.90
2017-09-21T23:21:03.320Z,99.90
2017-09-21T23:23:30.788Z,99.90
2017-09-21T23:25:58.279Z,99.90
2017-09-21T23:28:25.744Z,99.90
2017-09-21T23:30:53.203Z,99.90
2017-09-21T23:33:20.710Z,99.90
2017-09-21T23:35:48.168Z,99.90
2017-09-21T23:38:15.656Z,99.90
2017-09-21T23:40:44.060Z,99.90
2017-09-21T23:43:11.561Z,99.90
2017-09-21T23:45:39.825Z,99.90
2017-09-21T23:48:08.283Z,99.90
2017-09-21T23:50:36.522Z,99.90
2017-09-21T23:53:03.996Z,99.90
2017-09-21T23:55:32.448Z,99.90
2017-09-21T23:57:59.916Z,99.90
